createdAt,value
2022-09-24T00:01:39.982Z,100.00
2022-09-24T00:04:12.467Z,100.00
2022-09-24T00:06:45.523Z,100.00
2022-09-24T00:09:19.141Z,100.00
2022-09-24T00:11:46.101Z,100.00
2022-09-24T00:14:14.209Z,100.00
2022-09-24T00:16:44.216Z,100.00
2022-09-24T00:19:14.109Z,100.00
2022-09-24T00:21:43.191Z,100.00
2022-09-24T00:24:35.643Z,100.00
2022-09-24T00:27:06.359Z,100.00
2022-09-24T00:29:35.922Z,100.00
2022-09-24T00:32:06.544Z,100.00
2022-09-24T00:34:34.347Z,100.00
2022-09-24T00:37:01.549Z,100.00
2022-09-24T00:39:28.601Z,100.00
2022-09-24T00:41:55.815Z,100.00
2022-09-24T00:44:41.335Z,100.00
2022-09-24T00:47:41.043Z,100.00
2022-09-24T00:50:18.962Z,100.00
2022-09-24T00:52:58.595Z,100.00
2022-09-24T00:55:27.898Z,100.00
2022-09-24T00:58:04.210Z,100.00
2022-09-24T01:01:00.031Z,100.00
2022-09-24T01:03:29.745Z,100.00
2022-09-24T01:05:57.946Z,100.00
2022-09-24T01:08:25.036Z,100.00
2022-09-24T01:11:18.767Z,100.00
2022-09-24T01:14:30.985Z,100.00
2022-09-24T01:17:32.420Z,100.00
2022-09-24T01:20:38.908Z,100.00
2022-09-24T01:24:05.697Z,100.00
2022-09-24T01:27:01.734Z,100.00
2022-09-24T01:30:11.291Z,100.00
2022-09-24T01:32:47.139Z,100.00
2022-09-24T01:35:37.354Z,100.00
2022-09-24T01:38:25.560Z,100.00
2022-09-24T01:41:00.643Z,100.00
2022-09-24T01:43:30.430Z,100.00
2022-09-24T01:46:07.027Z,100.00
2022-09-24T01:48:37.867Z,100.00
2022-09-24T01:51:23.200Z,100.00
2022-09-24T01:54:11.289Z,100.00
2022-09-24T01:57:19.537Z,100.00
2022-09-24T02:00:07.557Z,100.00
2022-09-24T02:02:45.658Z,100.00
2022-09-24T02:05:34.391Z,100.00
2022-09-24T02:08:19.277Z,100.00
2022-09-24T02:11:24.877Z,100.00
2022-09-24T02:14:10.938Z,100.00
2022-09-24T02:16:49.139Z,100.00
2022-09-24T02:19:29.281Z,100.00
2022-09-24T02:21:58.506Z,100.00
2022-09-24T02:25:01.286Z,100.00
2022-09-24T02:27:28.929Z,100.00
2022-09-24T02:29:59.537Z,100.00
2022-09-24T02:32:35.926Z,100.00
2022-09-24T02:35:11.025Z,100.00
2022-09-24T02:37:44.543Z,100.00
2022-09-24T02:40:15.556Z,100.00
2022-09-24T02:42:43.614Z,100.00
2022-09-24T02:45:12.496Z,100.00
2022-09-24T02:47:39.568Z,100.00
2022-09-24T02:50:07.648Z,100.00
2022-09-24T02:52:34.566Z,100.00
2022-09-24T02:55:02.027Z,100.00
2022-09-24T02:57:29.005Z,100.00
2022-09-24T02:59:55.924Z,100.00
2022-09-24T03:02:23.164Z,100.00
2022-09-24T03:04:50.974Z,100.00
2022-09-24T03:07:18.376Z,100.00
2022-09-24T03:09:45.355Z,100.00
2022-09-24T03:12:17.669Z,100.00
2022-09-24T03:14:44.614Z,100.00
2022-09-24T03:17:12.363Z,100.00
2022-09-24T03:19:39.511Z,100.00
2022-09-24T03:22:06.591Z,100.00
2022-09-24T03:24:33.569Z,100.00
2022-09-24T03:27:00.535Z,100.00
2022-09-24T03:29:46.006Z,100.00
2022-09-24T03:32:12.911Z,100.00
2022-09-24T03:34:39.848Z,100.00
2022-09-24T03:37:07.134Z,100.00
2022-09-24T03:39:34.091Z,100.00
2022-09-24T03:42:01.027Z,100.00
2022-09-24T03:44:28.694Z,100.00
2022-09-24T03:46:55.864Z,100.00
2022-09-24T03:49:23.710Z,100.00
2022-09-24T03:51:50.780Z,100.00
2022-09-24T03:54:17.706Z,100.00
2022-09-24T03:56:44.628Z,100.00
2022-09-24T03:59:11.925Z,100.00
2022-09-24T04:01:39.084Z,100.00
2022-09-24T04:04:06.124Z,100.00
2022-09-24T04:06:33.075Z,100.00
2022-09-24T04:09:00.453Z,100.00
2022-09-24T04:11:27.599Z,100.00
2022-09-24T04:13:54.708Z,100.00
2022-09-24T04:16:22.302Z,100.00
2022-09-24T04:18:49.600Z,100.00
2022-09-24T04:21:16.739Z,100.00
2022-09-24T04:23:43.931Z,100.00
2022-09-24T04:26:10.885Z,100.00
2022-09-24T04:28:37.855Z,100.00
2022-09-24T04:31:05.227Z,100.00
2022-09-24T04:33:32.249Z,100.00
2022-09-24T04:35:59.317Z,100.00
2022-09-24T04:38:26.225Z,100.00
2022-09-24T04:40:53.449Z,100.00
2022-09-24T04:43:20.591Z,100.00
2022-09-24T04:45:47.546Z,100.00
2022-09-24T04:48:15.178Z,100.00
2022-09-24T04:50:46.148Z,100.00
2022-09-24T04:53:14.526Z,100.00
2022-09-24T04:55:42.180Z,100.00
2022-09-24T04:58:10.597Z,100.00
2022-09-24T05:00:37.661Z,100.00
2022-09-24T05:03:05.112Z,100.00
2022-09-24T05:05:34.581Z,100.00
2022-09-24T05:08:02.674Z,100.00
2022-09-24T05:10:33.275Z,100.00
2022-09-24T05:13:01.341Z,100.00
2022-09-24T05:15:28.310Z,100.00
2022-09-24T05:17:55.520Z,100.00
2022-09-24T05:20:22.467Z,100.00
2022-09-24T05:22:50.978Z,100.00
2022-09-24T05:25:22.451Z,100.00
2022-09-24T05:27:55.731Z,100.00
2022-09-24T05:30:26.368Z,100.00
2022-09-24T05:32:53.504Z,100.00
2022-09-24T05:35:23.957Z,100.00
2022-09-24T05:37:53.852Z,100.00
2022-09-24T05:40:41.075Z,100.00
2022-09-24T05:43:08.468Z,100.00
2022-09-24T05:45:35.485Z,100.00
2022-09-24T05:48:02.536Z,100.00
2022-09-24T05:50:29.680Z,100.00
2022-09-24T05:52:57.198Z,100.00
2022-09-24T05:55:26.683Z,100.00
2022-09-24T05:57:55.898Z,100.00
2022-09-24T06:00:22.849Z,100.00
2022-09-24T06:02:50.789Z,100.00
2022-09-24T06:05:17.717Z,100.00
2022-09-24T06:07:44.871Z,100.00
2022-09-24T06:10:11.818Z,100.00
2022-09-24T06:12:38.874Z,100.00
2022-09-24T06:15:06.515Z,100.00
2022-09-24T06:17:33.462Z,100.00
2022-09-24T06:20:00.540Z,100.00
2022-09-24T06:22:29.089Z,100.00
2022-09-24T06:24:56.424Z,100.00
2022-09-24T06:27:23.732Z,100.00
2022-09-24T06:29:50.707Z,100.00
2022-09-24T06:32:19.850Z,100.00
2022-09-24T06:34:47.649Z,100.00
2022-09-24T06:37:14.654Z,100.00
2022-09-24T06:39:41.680Z,100.00
2022-09-24T06:42:14.399Z,100.00
2022-09-24T06:44:42.426Z,100.00
2022-09-24T06:47:09.274Z,100.00
2022-09-24T06:49:36.262Z,100.00
2022-09-24T06:52:03.354Z,100.00
2022-09-24T06:54:30.268Z,100.00
2022-09-24T06:56:57.183Z,100.00
2022-09-24T06:59:24.156Z,100.00
2022-09-24T07:01:51.110Z,100.00
2022-09-24T07:04:18.266Z,100.00
2022-09-24T07:07:03.617Z,100.00
2022-09-24T07:09:30.527Z,100.00
2022-09-24T07:12:01.636Z,100.00
2022-09-24T07:14:28.548Z,100.00
2022-09-24T07:16:55.556Z,100.00
2022-09-24T07:19:22.681Z,100.00
2022-09-24T07:21:49.736Z,100.00
2022-09-24T07:24:16.678Z,100.00
2022-09-24T07:26:43.696Z,100.00
2022-09-24T07:29:10.843Z,100.00
2022-09-24T07:31:38.058Z,100.00
2022-09-24T07:34:09.063Z,100.00
2022-09-24T07:36:36.472Z,100.00
2022-09-24T07:39:03.702Z,100.00
2022-09-24T07:41:31.027Z,100.00
2022-09-24T07:43:57.977Z,100.00
2022-09-24T07:46:25.042Z,100.00
2022-09-24T07:48:56.594Z,100.00
2022-09-24T07:51:28.351Z,100.00
2022-09-24T07:53:57.996Z,100.00
2022-09-24T07:56:25.983Z,100.00
2022-09-24T07:58:53.356Z,100.00
2022-09-24T08:01:21.162Z,100.00
2022-09-24T08:03:48.397Z,100.00
2022-09-24T08:06:15.483Z,100.00
2022-09-24T08:08:43.598Z,100.00
2022-09-24T08:11:17.436Z,100.00
2022-09-24T08:13:45.241Z,100.00
2022-09-24T08:16:13.117Z,100.00
2022-09-24T08:18:43.582Z,100.00
2022-09-24T08:21:13.346Z,100.00
2022-09-24T08:23:41.651Z,100.00
2022-09-24T08:26:11.525Z,100.00
2022-09-24T08:28:42.195Z,100.00
2022-09-24T08:31:13.472Z,100.00
2022-09-24T08:33:41.082Z,100.00
2022-09-24T08:36:10.257Z,100.00
2022-09-24T08:38:37.667Z,100.00
2022-09-24T08:41:13.373Z,100.00
2022-09-24T08:44:09.224Z,100.00
2022-09-24T08:47:08.604Z,100.00
2022-09-24T08:49:48.438Z,97.09
2022-09-24T08:52:42.609Z,94.67
2022-09-24T08:55:39.578Z,91.50
2022-09-24T08:58:47.158Z,91.25
2022-09-24T09:01:22.013Z,91.88
2022-09-24T09:04:25.813Z,89.25
2022-09-24T09:07:09.929Z,86.87
2022-09-24T09:10:04.861Z,88.91
2022-09-24T09:12:51.309Z,89.30
2022-09-24T09:15:41.643Z,90.20
2022-09-24T09:18:32.876Z,93.11
2022-09-24T09:21:34.688Z,93.43
2022-09-24T09:24:05.565Z,94.59
2022-09-24T09:26:32.567Z,90.68
2022-09-24T09:29:01.915Z,90.29
2022-09-24T09:32:12.063Z,93.47
2022-09-24T09:35:44.428Z,89.33
2022-09-24T09:38:54.959Z,91.19
2022-09-24T09:42:23.442Z,93.66
2022-09-24T09:44:50.616Z,96.26
2022-09-24T09:47:57.599Z,91.70
2022-09-24T09:50:49.255Z,91.42
2022-09-24T09:53:32.066Z,92.94
2022-09-24T09:56:07.663Z,92.16
2022-09-24T09:58:44.652Z,91.93
2022-09-24T10:01:20.357Z,92.22
2022-09-24T10:03:50.037Z,92.92
2022-09-24T10:06:32.527Z,94.62
2022-09-24T10:09:19.711Z,93.08
2022-09-24T10:11:48.534Z,90.99
2022-09-24T10:14:21.762Z,90.52
2022-09-24T10:16:55.865Z,90.80
2022-09-24T10:19:29.223Z,90.41
2022-09-24T10:22:07.223Z,92.64
2022-09-24T10:24:42.133Z,92.99
2022-09-24T10:27:29.020Z,89.52
2022-09-24T10:30:17.328Z,89.02
2022-09-24T10:32:45.797Z,87.59
2022-09-24T10:35:32.454Z,87.23
2022-09-24T10:38:04.735Z,88.66
2022-09-24T10:40:41.448Z,84.54
2022-09-24T10:43:21.044Z,86.56
2022-09-24T10:46:47.077Z,88.10
2022-09-24T10:49:55.642Z,80.53
2022-09-24T10:53:03.504Z,83.92
2022-09-24T10:56:06.469Z,87.86
2022-09-24T10:59:24.611Z,78.01
2022-09-24T11:02:43.747Z,81.40
2022-09-24T11:05:23.380Z,79.97
2022-09-24T11:08:29.831Z,82.04
2022-09-24T11:11:26.196Z,79.88
2022-09-24T11:14:31.587Z,81.84
2022-09-24T11:17:26.479Z,79.21
2022-09-24T11:20:28.964Z,78.25
2022-09-24T11:23:43.342Z,80.83
2022-09-24T11:26:40.890Z,80.08
2022-09-24T11:29:36.263Z,78.46
2022-09-24T11:32:36.014Z,80.94
2022-09-24T11:35:35.626Z,79.75
2022-09-24T11:38:54.764Z,77.71
2022-09-24T11:42:38.556Z,77.08
2022-09-24T11:45:48.217Z,79.27
2022-09-24T11:49:02.779Z,79.21
2022-09-24T11:52:09.699Z,78.31
2022-09-24T11:55:03.795Z,78.72
2022-09-24T11:57:57.672Z,74.94
2022-09-24T12:00:40.605Z,76.15
2022-09-24T12:03:58.949Z,76.39
2022-09-24T12:06:54.983Z,79.04
2022-09-24T12:09:46.815Z,75.84
2022-09-24T12:12:29.343Z,78.85
2022-09-24T12:15:43.102Z,78.22
2022-09-24T12:18:23.752Z,78.02
2022-09-24T12:21:19.448Z,77.65
2022-09-24T12:23:51.479Z,75.43
2022-09-24T12:26:25.345Z,77.67
2022-09-24T12:29:17.763Z,75.83
2022-09-24T12:32:56.168Z,77.07
2022-09-24T12:35:29.053Z,76.05
2022-09-24T12:38:39.214Z,77.35
2022-09-24T12:41:37.369Z,76.44
2022-09-24T12:44:11.788Z,77.04
2022-09-24T12:46:55.442Z,78.38
2022-09-24T12:49:25.384Z,76.11
2022-09-24T12:52:17.961Z,76.58
2022-09-24T12:54:46.537Z,76.06
2022-09-24T12:57:26.407Z,78.84
2022-09-24T13:00:00.719Z,74.19
2022-09-24T13:02:47.243Z,77.42
2022-09-24T13:05:33.230Z,74.77
2022-09-24T13:08:20.009Z,73.58
2022-09-24T13:11:22.594Z,72.88
2022-09-24T13:14:04.648Z,72.26
2022-09-24T13:16:40.885Z,72.85
2022-09-24T13:19:45.040Z,67.81
2022-09-24T13:22:35.097Z,66.52
2022-09-24T13:25:07.734Z,65.86
2022-09-24T13:27:43.359Z,64.93
2022-09-24T13:30:30.242Z,66.75
2022-09-24T13:33:24.111Z,64.07
2022-09-24T13:36:23.397Z,66.18
2022-09-24T13:38:57.709Z,66.48
2022-09-24T13:42:15.525Z,63.41
2022-09-24T13:44:56.314Z,65.82
2022-09-24T13:47:42.827Z,65.43
2022-09-24T13:50:40.345Z,64.75
2022-09-24T13:53:17.117Z,66.17
2022-09-24T13:55:59.462Z,65.74
2022-09-24T13:58:32.833Z,65.53
2022-09-24T14:01:12.878Z,66.29
2022-09-24T14:03:42.836Z,66.63
2022-09-24T14:06:15.634Z,66.86
2022-09-24T14:08:47.276Z,68.09
2022-09-24T14:11:26.461Z,67.10
2022-09-24T14:13:56.425Z,65.32
2022-09-24T14:16:26.418Z,68.45
2022-09-24T14:19:06.692Z,64.75
2022-09-24T14:21:55.145Z,65.95
2022-09-24T14:24:43.459Z,64.46
2022-09-24T14:27:23.500Z,67.89
2022-09-24T14:30:24.937Z,70.24
2022-09-24T14:33:07.242Z,69.62
2022-09-24T14:35:49.405Z,66.22
2022-09-24T14:38:29.614Z,66.21
2022-09-24T14:41:16.855Z,69.25
2022-09-24T14:44:20.186Z,71.79
2022-09-24T14:46:59.645Z,73.73
2022-09-24T14:49:44.314Z,74.96
2022-09-24T14:52:34.347Z,74.69
2022-09-24T14:55:20.718Z,76.23
2022-09-24T14:57:53.988Z,79.68
2022-09-24T15:00:49.792Z,80.15
2022-09-24T15:03:40.735Z,80.53
2022-09-24T15:06:35.555Z,82.34
2022-09-24T15:09:30.041Z,83.77
2022-09-24T15:12:43.085Z,83.72
2022-09-24T15:15:19.623Z,84.41
2022-09-24T15:17:47.697Z,85.57
2022-09-24T15:20:15.067Z,85.56
2022-09-24T15:22:42.188Z,85.38
2022-09-24T15:25:10.699Z,85.51
2022-09-24T15:27:42.244Z,83.50
2022-09-24T15:30:21.770Z,87.39
2022-09-24T15:32:50.114Z,83.86
2022-09-24T15:35:17.616Z,84.86
2022-09-24T15:37:45.192Z,83.06
2022-09-24T15:40:23.012Z,86.63
2022-09-24T15:42:50.979Z,85.11
2022-09-24T15:45:23.452Z,86.02
2022-09-24T15:47:53.240Z,86.62
2022-09-24T15:50:24.091Z,85.45
2022-09-24T15:52:59.677Z,86.12
2022-09-24T15:55:28.902Z,86.14
2022-09-24T15:57:55.957Z,86.15
2022-09-24T16:00:25.408Z,86.72
2022-09-24T16:02:57.483Z,87.17
2022-09-24T16:05:26.114Z,88.45
2022-09-24T16:07:53.107Z,91.67
2022-09-24T16:10:20.143Z,90.88
2022-09-24T16:12:47.254Z,94.73
2022-09-24T16:15:16.683Z,93.13
2022-09-24T16:17:44.352Z,91.27
2022-09-24T16:20:11.408Z,91.45
2022-09-24T16:22:38.519Z,91.62
2022-09-24T16:25:06.617Z,92.24
2022-09-24T16:27:35.412Z,93.63
2022-09-24T16:30:06.262Z,96.03
2022-09-24T16:32:33.813Z,96.04
2022-09-24T16:35:00.731Z,98.23
2022-09-24T16:37:28.089Z,98.95
2022-09-24T16:39:56.093Z,100.00
2022-09-24T16:42:26.364Z,100.00
2022-09-24T16:44:53.380Z,100.00
2022-09-24T16:47:20.739Z,100.00
2022-09-24T16:49:48.515Z,100.00
2022-09-24T16:52:15.557Z,100.00
2022-09-24T16:54:42.516Z,100.00
2022-09-24T16:57:09.592Z,100.00
2022-09-24T16:59:36.539Z,100.00
2022-09-24T17:02:04.105Z,100.00
2022-09-24T17:04:31.150Z,100.00
2022-09-24T17:06:58.210Z,100.00
2022-09-24T17:09:43.985Z,100.00
2022-09-24T17:12:14.829Z,100.00
2022-09-24T17:14:41.770Z,100.00
2022-09-24T17:17:08.971Z,100.00
2022-09-24T17:19:35.918Z,100.00
2022-09-24T17:22:02.948Z,100.00
2022-09-24T17:24:30.429Z,100.00
2022-09-24T17:26:57.484Z,100.00
2022-09-24T17:29:30.478Z,100.00
2022-09-24T17:31:59.480Z,100.00
2022-09-24T17:34:26.809Z,100.00
2022-09-24T17:36:53.877Z,100.00
2022-09-24T17:39:20.880Z,100.00
2022-09-24T17:41:47.858Z,100.00
2022-09-24T17:44:15.750Z,100.00
2022-09-24T17:46:42.835Z,100.00
2022-09-24T17:49:11.569Z,100.00
2022-09-24T17:51:38.807Z,100.00
2022-09-24T17:54:14.389Z,100.00
2022-09-24T17:56:42.359Z,100.00
2022-09-24T17:59:13.304Z,100.00
2022-09-24T18:01:44.211Z,100.00
2022-09-24T18:04:16.948Z,100.00
2022-09-24T18:06:47.344Z,100.00
2022-09-24T18:09:17.309Z,100.00
2022-09-24T18:11:52.921Z,100.00
2022-09-24T18:14:23.195Z,100.00
2022-09-24T18:16:52.136Z,100.00
2022-09-24T18:19:19.720Z,100.00
2022-09-24T18:21:49.278Z,100.00
2022-09-24T18:24:16.736Z,100.00
2022-09-24T18:26:44.005Z,100.00
2022-09-24T18:29:17.736Z,100.00
2022-09-24T18:31:45.505Z,100.00
2022-09-24T18:34:16.279Z,100.00
2022-09-24T18:36:45.550Z,100.00
2022-09-24T18:39:22.005Z,100.00
2022-09-24T18:41:52.310Z,100.00
2022-09-24T18:44:19.847Z,100.00
2022-09-24T18:46:47.128Z,100.00
2022-09-24T18:49:14.169Z,100.00
2022-09-24T18:51:41.395Z,100.00
2022-09-24T18:54:18.515Z,100.00
2022-09-24T18:56:46.778Z,100.00
2022-09-24T18:59:20.323Z,100.00
2022-09-24T19:01:50.733Z,100.00
2022-09-24T19:04:18.733Z,100.00
2022-09-24T19:06:48.442Z,100.00
2022-09-24T19:09:18.320Z,100.00
2022-09-24T19:11:48.381Z,100.00
2022-09-24T19:14:18.551Z,100.00
2022-09-24T19:16:47.470Z,100.00
2022-09-24T19:19:14.832Z,100.00
2022-09-24T19:21:42.431Z,100.00
2022-09-24T19:24:10.072Z,100.00
2022-09-24T19:26:37.734Z,100.00
2022-09-24T19:29:05.968Z,100.00
2022-09-24T19:31:42.554Z,100.00
2022-09-24T19:34:14.671Z,100.00
2022-09-24T19:36:44.063Z,100.00
2022-09-24T19:39:16.447Z,100.00
2022-09-24T19:41:44.925Z,100.00
2022-09-24T19:44:12.616Z,100.00
2022-09-24T19:46:39.966Z,100.00
2022-09-24T19:49:07.586Z,100.00
2022-09-24T19:51:37.206Z,100.00
2022-09-24T19:54:10.676Z,100.00
2022-09-24T19:56:38.479Z,100.00
2022-09-24T19:59:08.049Z,100.00
2022-09-24T20:01:35.387Z,100.00
2022-09-24T20:04:07.559Z,100.00
2022-09-24T20:06:38.324Z,100.00
2022-09-24T20:09:07.473Z,100.00
2022-09-24T20:11:35.873Z,100.00
2022-09-24T20:14:06.029Z,100.00
2022-09-24T20:16:33.564Z,100.00
2022-09-24T20:19:03.940Z,100.00
2022-09-24T20:21:38.478Z,100.00
2022-09-24T20:24:11.730Z,100.00
2022-09-24T20:26:57.439Z,100.00
2022-09-24T20:29:24.910Z,100.00
2022-09-24T20:31:55.705Z,100.00
2022-09-24T20:34:33.973Z,100.00
2022-09-24T20:37:05.959Z,100.00
2022-09-24T20:39:33.968Z,100.00
2022-09-24T20:42:04.144Z,100.00
2022-09-24T20:44:33.184Z,100.00
2022-09-24T20:47:01.001Z,100.00
2022-09-24T20:49:30.047Z,100.00
2022-09-24T20:51:58.114Z,100.00
2022-09-24T20:54:28.690Z,100.00
2022-09-24T20:56:56.692Z,100.00
2022-09-24T20:59:26.745Z,100.00
2022-09-24T21:01:55.433Z,100.00
2022-09-24T21:04:23.782Z,100.00
2022-09-24T21:06:51.031Z,100.00
2022-09-24T21:09:18.279Z,100.00
2022-09-24T21:11:45.297Z,100.00
2022-09-24T21:14:13.110Z,100.00
2022-09-24T21:16:40.653Z,100.00
2022-09-24T21:19:08.249Z,100.00
2022-09-24T21:21:39.173Z,100.00
2022-09-24T21:24:12.363Z,100.00
2022-09-24T21:26:40.362Z,100.00
2022-09-24T21:29:21.001Z,100.00
2022-09-24T21:31:49.323Z,100.00
2022-09-24T21:34:21.011Z,100.00
2022-09-24T21:36:49.149Z,100.00
2022-09-24T21:39:20.597Z,100.00
2022-09-24T21:41:55.052Z,100.00
2022-09-24T21:44:22.514Z,100.00
2022-09-24T21:46:52.719Z,100.00
2022-09-24T21:49:21.040Z,100.00
2022-09-24T21:51:48.574Z,100.00
2022-09-24T21:54:18.663Z,100.00
2022-09-24T21:56:47.861Z,100.00
2022-09-24T21:59:35.537Z,100.00
2022-09-24T22:02:04.390Z,100.00
2022-09-24T22:04:33.499Z,100.00
2022-09-24T22:07:02.267Z,100.00
2022-09-24T22:09:32.288Z,100.00
2022-09-24T22:12:01.714Z,100.00
2022-09-24T22:14:28.876Z,100.00
2022-09-24T22:16:56.960Z,100.00
2022-09-24T22:19:24.542Z,100.00
2022-09-24T22:21:52.450Z,100.00
2022-09-24T22:24:19.698Z,100.00
2022-09-24T22:26:46.826Z,100.00
2022-09-24T22:29:13.798Z,100.00
2022-09-24T22:31:40.929Z,100.00
2022-09-24T22:34:26.813Z,100.00
2022-09-24T22:36:53.785Z,100.00
2022-09-24T22:39:21.062Z,100.00
2022-09-24T22:41:48.075Z,100.00
2022-09-24T22:44:15.057Z,100.00
2022-09-24T22:46:42.193Z,100.00
2022-09-24T22:49:11.040Z,100.00
2022-09-24T22:51:39.432Z,100.00
2022-09-24T22:54:09.765Z,100.00
2022-09-24T22:56:37.383Z,100.00
2022-09-24T22:59:05.172Z,100.00
2022-09-24T23:01:41.364Z,100.00
2022-09-24T23:04:08.795Z,100.00
2022-09-24T23:06:35.953Z,100.00
2022-09-24T23:09:04.377Z,100.00
2022-09-24T23:11:35.163Z,100.00
2022-09-24T23:14:11.100Z,100.00
2022-09-24T23:16:39.738Z,100.00
2022-09-24T23:19:15.336Z,100.00
2022-09-24T23:21:43.829Z,100.00
2022-09-24T23:24:20.001Z,100.00
2022-09-24T23:26:48.063Z,100.00
2022-09-24T23:29:15.422Z,100.00
2022-09-24T23:31:42.764Z,100.00
2022-09-24T23:34:14.357Z,100.00
2022-09-24T23:36:45.206Z,100.00
2022-09-24T23:39:12.765Z,100.00
2022-09-24T23:41:39.760Z,100.00
2022-09-24T23:44:07.404Z,100.00
2022-09-24T23:46:34.485Z,100.00
2022-09-24T23:49:01.825Z,100.00
2022-09-24T23:51:29.165Z,100.00
2022-09-24T23:53:56.129Z,100.00
2022-09-24T23:56:23.394Z,100.00
2022-09-24T23:58:50.489Z,100.00
